CheckWX is a tool to help pilots better visualize weather data.  It is not intended as a substitute for an official pre-flight weather briefing.

19:08:58 UTC

VTBU METAR
U-Tapao International Airport
Rayong, Thailand
Current

39 mins ago

VTBU 121830Z 01004KT 5000 BR NSC 24/22 Q1011 NOSIG
Observed
Nov-12 @ 18:30 UTC
Wind
  • 010° at 4 KTS
Visibility
5,000 meters
Flight Rules
MVFR
Conditions
Mist
Cloud Levels
  • Clear skies
Temperature
24°C / 75°F
Dewpoint
22°C / 72°F
Humidity
89%
Altimeter
29.85" Hg
Pressure
1010.92 hPa
Previous

1 hour ago

VTBU 121800Z 36004KT 5000 BR NSC 24/22 Q1011 NOSIG
Observed
Nov-12 @ 18:00 UTC
Wind
  • 360° at 4 KTS
Visibility
5,000 meters
Flight Rules
MVFR
Conditions
Mist
Cloud Levels
  • Clear skies
Temperature
24°C / 75°F
Dewpoint
22°C / 72°F
Humidity
89%
Altimeter
29.85" Hg
Pressure
1010.92 hPa
Previous

2 hours ago

VTBU 121730Z 36004KT 5000 BR NSC 24/22 Q1012 NOSIG
Observed
Nov-12 @ 17:30 UTC
Wind
  • 360° at 4 KTS
Visibility
5,000 meters
Flight Rules
MVFR
Conditions
Mist
Cloud Levels
  • Clear skies
Temperature
24°C / 75°F
Dewpoint
22°C / 72°F
Humidity
89%
Altimeter
29.88" Hg
Pressure
1011.92 hPa